Search for airport 
image banner adimage banner ad
image banner ad

SVVS - Capital Alfredo Sierra

Located in Lagunillas, Venezuela

ICAO - SVVS, IATA -

Data provided by Airmate  

General information

Coordinates: N10°7'47" W71°14'9"
Elevation is 259 feet MSL.
 
View others Airports in Zulia

Operational data

Open for public use
Current time UTC:
Current local time:
Weather at : SVMC - Maracaibo / La Chinita Intl ( 72 km )
METAR: SVMC 290002Z AUTO 01007KT NCD 30/24 Q1006
TAF: TAF SVMC 282200Z 2900/3000 14005KT 9999 SCT013 TX34/2919Z TN24/2907Z TEMPO 2900/2904 00000KT 8000 DZ OVC013 FM290500 00000KT 9000 DZ BKN013
View NOTAMs / SUP AIP / TFR affecting this airport [VIEW]
Communications frequencies: [VIEW]

Runways:

Airport contact information

Address: Lagunillas Venezuela

Satellite view of SVVS